Accueil
METAR-TAF:

METAR-TAF

Aéroports :

Gérone, Espagne

Aéroport de Gérone-Costa Brava

latitude: 41-54N, longitude: 002-46E, altitude: 143 m

Observation

Le bulletin a été fait il y a 18 minutes, à 10:30 UTC
Vent 6 kt de sud
Température 25°C
Humidité 34%
Pression 1007 hPa
Visibilité 10 km ou plus
Nuages épars à une hauteur de 7000 ft

METAR: LEGE 291030Z 19006KT 9999 SCT070 25/08 Q1007

Heure: 12:48 (10:48 UTC)

Prévision

Le bulletin a été fait il y a 5 heures et 48 minutes, à 05:00 UTC
Prévision valable du 29 à 06 UTC au 30 à 06 UTC
Vent 5 kt de direction variable
Visibilité 10 km ou plus
Quelques nuages à une hauteur de 3000 ft
Temporairement
du 29 à 12 UTC au 29 à 20 UTC
Vent 10 kt de nord/nord-est
Temporairement
du 29 à 20 UTC au 30 à 02 UTC
Vent 10 kt de sud-ouest

TAF: LEGE 290500Z 2906/3006 VRB05KT 9999 FEW030 TX25/2914Z TN15/2906Z TEMPO 2912/2920 03010KT TEMPO 2920/3002 22010KT

Observations et prévisions météorologiques de plus de 4000 aéroports (messages METAR et TAF).

Les stations disponibles sont représentées par des disques jaunes et rouges sur la carte.

Passer la souris dessus pour voir le nom de la station.

Cliquer dessus pour voir les observations et prévisions météorologiques.

Pour changer de carte: cliquez sur les boutons verts avec une croix noire pour zoomer, sur le bouton vert avec un tiret pour effectuer un zoom arrière, ou sur les flèches vertes pour les cartes adjacentes.


METAR-TAF: